Time;durP1;ratioP1;P1;durP2;ratioP2;P2;SDS_P1;SDS_P2;PMS_P1;PMS_P2;Temp;Humidity;BMP_temperature;BMP_pressure;BME280_temperature;BME280_humidity;BME280_pressure;Samples;Min_cycle;Max_cycle;Signal;HPM_P1;HPM_P2
2021/11/07 00:03:13;;;;;;;5.13;3.00;;;;;;;11.88;100.00;100536.81;4985631;28;20038;-67
2021/11/07 00:05:06;;;;;;;6.13;3.55;;;;;;;11.67;100.00;100537.31;4962278;28;20059;-65
2021/11/07 00:08:42;;;;;;;8.68;3.55;;;;;;;11.70;100.00;100529.28;4985564;28;20107;-67
2021/11/07 00:10:48;;;;;;;4.43;1.85;;;;;;;11.66;100.00;100517.66;4969570;28;20057;-67
2021/11/07 00:15:43;;;;;;;7.65;3.83;;;;;;;11.73;100.00;100511.56;4991887;28;20034;-67
2021/11/07 00:18:16;;;;;;;5.60;3.10;;;;;;;11.66;100.00;100506.88;4986029;28;20033;-66
2021/11/07 00:20:53;;;;;;;7.72;4.22;;;;;;;11.71;100.00;100497.69;4986344;28;20038;-67
2021/11/07 00:25:51;;;;;;;8.30;4.00;;;;;;;11.56;100.00;100485.09;4992540;28;20080;-67
2021/11/07 00:28:40;;;;;;;7.18;3.75;;;;;;;11.45;100.00;100481.50;4971452;28;20528;-67
2021/11/07 00:36:28;;;;;;;9.10;3.67;;;;;;;11.27;100.00;100462.38;4991868;28;20026;-67
2021/11/07 00:38:54;;;;;;;8.63;3.92;;;;;;;11.25;100.00;100451.16;4992397;28;20073;-67
2021/11/07 00:43:53;;;;;;;9.45;4.28;;;;;;;11.30;100.00;100442.78;4997791;28;20761;-66
2021/11/07 00:46:27;;;;;;;7.72;3.80;;;;;;;11.29;100.00;100440.44;4969127;28;20128;-67
2021/11/07 00:49:05;;;;;;;7.82;3.83;;;;;;;11.26;100.00;100439.25;4993027;28;20069;-66
2021/11/07 00:59:00;;;;;;;8.10;4.07;;;;;;;11.26;100.00;100406.13;4992342;28;20035;-67
2021/11/07 01:01:28;;;;;;;10.95;4.53;;;;;;;11.31;100.00;100400.41;4987960;28;20496;-67
2021/11/07 01:03:55;;;;;;;5.82;3.20;;;;;;;11.26;100.00;100401.53;4987906;28;20038;-66
2021/11/07 01:06:21;;;;;;;7.50;4.47;;;;;;;11.26;100.00;100390.75;4993073;28;20065;-67
2021/11/07 01:08:48;;;;;;;9.32;3.97;;;;;;;11.25;100.00;100374.91;4981703;28;20066;-67
2021/11/07 01:11:14;;;;;;;9.70;4.03;;;;;;;11.28;100.00;100382.28;4987037;28;20030;-67
2021/11/07 01:13:40;;;;;;;6.15;3.65;;;;;;;11.30;100.00;100369.22;4986793;28;20493;-66
2021/11/07 01:16:06;;;;;;;6.45;3.80;;;;;;;11.33;100.00;100368.47;4991605;28;20049;-67
2021/11/07 01:18:32;;;;;;;7.88;3.72;;;;;;;11.31;100.00;100373.44;4992495;28;20038;-66
2021/11/07 01:20:57;;;;;;;8.00;3.80;;;;;;;11.33;100.00;100371.94;4990336;28;20141;-67
2021/11/07 01:23:31;;;;;;;9.30;4.20;;;;;;;11.38;100.00;100365.47;4989721;28;20026;-66
2021/11/07 01:26:04;;;;;;;6.13;3.42;;;;;;;11.38;100.00;100362.78;4991344;28;20034;-67
2021/11/07 01:28:37;;;;;;;5.32;3.30;;;;;;;11.28;100.00;100369.59;4992973;28;20042;-67
2021/11/07 01:31:03;;;;;;;6.28;3.08;;;;;;;11.31;100.00;100354.59;4985674;28;20089;-67
2021/11/07 01:33:30;;;;;;;4.68;2.50;;;;;;;11.40;100.00;100358.56;4992287;28;20069;-66
2021/11/07 01:37:00;;;;;;;5.38;2.83;;;;;;;11.37;100.00;100353.13;4987893;28;20133;-67
2021/11/07 01:38:55;;;;;;;8.85;3.22;;;;;;;11.45;100.00;100344.75;4982727;28;20087;-67
2021/11/07 01:41:27;;;;;;;5.05;3.05;;;;;;;11.41;100.00;100337.75;4990140;28;20041;-66
2021/11/07 01:43:55;;;;;;;5.70;2.97;;;;;;;11.34;100.00;100337.69;4974792;28;20037;-67
2021/11/07 01:51:23;;;;;;;4.63;2.50;;;;;;;11.37;100.00;100321.56;4991301;28;20434;-67
2021/11/07 01:53:51;;;;;;;5.93;2.70;;;;;;;11.39;100.00;100310.41;4992039;28;20034;-67
2021/11/07 01:56:17;;;;;;;3.28;2.55;;;;;;;11.42;100.00;100317.75;4988423;28;20034;-67
2021/11/07 01:58:44;;;;;;;5.22;2.70;;;;;;;11.42;100.00;100309.69;4988515;28;20026;-67
2021/11/07 02:01:10;;;;;;;4.53;3.00;;;;;;;11.38;100.00;100304.22;4990983;28;20400;-66
2021/11/07 02:03:37;;;;;;;4.68;2.53;;;;;;;11.46;100.00;100296.97;4984068;28;20113;-67
2021/11/07 02:06:04;;;;;;;3.05;2.03;;;;;;;11.42;100.00;100294.25;4982127;28;20413;-66
2021/11/07 02:08:30;;;;;;;3.70;2.20;;;;;;;11.47;100.00;100296.63;4980537;28;20044;-66
2021/11/07 02:10:58;;;;;;;4.63;2.65;;;;;;;11.53;100.00;100283.59;4987277;28;20129;-67
2021/11/07 02:13:26;;;;;;;4.78;2.53;;;;;;;11.33;100.00;100287.59;4989693;28;20049;-67
2021/11/07 02:15:52;;;;;;;3.47;1.92;;;;;;;11.33;100.00;100280.28;4990158;28;20453;-67
2021/11/07 02:18:18;;;;;;;6.28;2.42;;;;;;;11.41;100.00;100275.75;4991523;28;20038;-67
2021/11/07 02:20:45;;;;;;;4.50;2.40;;;;;;;11.42;100.00;100253.06;4990343;28;20109;-67
2021/11/07 02:23:15;;;;;;;3.67;2.60;;;;;;;11.37;100.00;100250.69;4986938;28;20436;-67
2021/11/07 02:25:43;;;;;;;5.63;2.17;;;;;;;11.46;100.00;100261.94;4987494;28;20058;-66
2021/11/07 02:28:22;;;;;;;;;;;;;;;11.45;100.00;100247.69;4982646;28;20030;-67
2021/11/07 02:30:47;;;;;;;4.03;2.00;;;;;;;11.50;100.00;100246.56;4990242;28;19914;-67
2021/11/07 02:33:13;;;;;;;5.30;2.60;;;;;;;11.46;100.00;100248.44;4991239;28;20049;-67
2021/11/07 02:35:38;;;;;;;3.70;1.83;;;;;;;11.46;100.00;100248.44;4984343;28;20093;-65
2021/11/07 02:38:04;;;;;;;5.38;2.80;;;;;;;11.51;100.00;100250.81;4991457;28;20366;-66
2021/11/07 02:40:29;;;;;;;5.13;2.72;;;;;;;11.36;100.00;100231.03;4990417;28;20045;-64
2021/11/07 02:42:56;;;;;;;4.18;2.35;;;;;;;11.44;100.00;100235.34;4972597;28;20448;-66
2021/11/07 02:45:22;;;;;;;8.48;3.03;;;;;;;11.49;100.00;100228.84;4985718;28;20030;-67
2021/11/07 02:47:49;;;;;;;3.97;2.30;;;;;;;11.48;100.00;100230.75;4991070;28;20096;-65
2021/11/07 02:50:18;;;;;;;4.57;2.75;;;;;;;11.57;100.00;100201.59;4990406;28;20036;-65
2021/11/07 02:52:44;;;;;;;3.78;2.55;;;;;;;11.51;100.00;100205.00;4988109;28;20133;-65
2021/11/07 02:55:10;;;;;;;3.95;2.53;;;;;;;11.44;100.00;100194.91;4984246;28;20047;-67
2021/11/07 02:57:37;;;;;;;3.40;2.15;;;;;;;11.50;100.00;100195.34;4990997;28;20497;-65
2021/11/07 03:00:07;;;;;;;6.05;2.63;;;;;;;11.51;100.00;100200.38;4972955;28;20404;-64
2021/11/07 03:02:32;;;;;;;6.35;2.58;;;;;;;11.55;100.00;100197.72;4987705;28;20041;-65
2021/11/07 03:04:58;;;;;;;3.60;2.47;;;;;;;11.53;100.00;100189.22;4985336;28;20026;-64
2021/11/07 03:07:24;;;;;;;3.80;2.35;;;;;;;11.59;100.00;100187.72;4990150;28;20801;-65
2021/11/07 03:09:50;;;;;;;4.57;2.85;;;;;;;11.63;100.00;100177.75;4986787;28;20053;-65
2021/11/07 03:12:16;;;;;;;9.52;3.08;;;;;;;11.60;100.00;100173.06;4987709;28;20080;-65
2021/11/07 03:14:49;;;;;;;5.18;2.70;;;;;;;11.51;100.00;100173.41;4990851;28;20054;-65
2021/11/07 03:17:19;;;;;;;3.38;1.98;;;;;;;11.50;100.00;100174.53;4990866;28;20034;-65
2021/11/07 03:19:48;;;;;;;3.10;2.00;;;;;;;11.38;100.00;100165.97;4986024;28;20117;-65
2021/11/07 03:22:21;;;;;;;5.18;2.10;;;;;;;11.50;100.00;100168.38;4989744;28;20030;-65
2021/11/07 03:24:52;;;;;;;3.45;1.90;;;;;;;11.50;100.00;100169.16;4991051;28;20058;-65
2021/11/07 03:27:29;;;;;;;4.20;2.55;;;;;;;11.50;100.00;100169.16;4986667;28;20042;-64
2021/11/07 03:29:57;;;;;;;3.03;1.88;;;;;;;11.52;100.00;100156.06;4989533;28;20043;-66
2021/11/07 03:32:27;;;;;;;2.47;1.63;;;;;;;11.48;100.00;100157.19;4964181;28;20034;-65
2021/11/07 03:34:56;;;;;;;1.83;1.55;;;;;;;11.46;100.00;100165.66;4987071;28;20034;-66
2021/11/07 03:37:26;;;;;;;2.35;1.58;;;;;;;11.54;100.00;100166.47;4985944;28;20520;-65
2021/11/07 03:39:55;;;;;;;3.03;1.77;;;;;;;11.52;100.00;100171.47;4991072;28;20477;-64
2021/11/07 03:42:23;;;;;;;2.05;1.55;;;;;;;11.52;100.00;100171.47;4976440;28;20039;-65
2021/11/07 03:44:50;;;;;;;6.03;1.88;;;;;;;11.46;100.00;100167.56;4987060;28;20052;-65
2021/11/07 03:47:16;;;;;;;3.97;1.90;;;;;;;11.56;100.00;100151.47;4975066;28;20049;-65
2021/11/07 03:49:43;;;;;;;2.33;1.52;;;;;;;11.56;100.00;100162.28;4986549;28;20038;-65
2021/11/07 03:52:11;;;;;;;2.53;1.45;;;;;;;11.55;100.00;100165.34;4988400;28;20026;-65
2021/11/07 03:54:40;;;;;;;1.83;1.50;;;;;;;11.54;100.00;100166.47;4989651;28;20045;-65
2021/11/07 03:57:06;;;;;;;2.70;1.55;;;;;;;11.60;100.00;100173.06;4981350;28;20037;-65
2021/11/07 03:59:31;;;;;;;1.33;1.10;;;;;;;11.57;100.00;100161.13;4993774;28;20026;-66
2021/11/07 04:01:57;;;;;;;1.20;0.93;;;;;;;11.50;100.00;100165.66;4992587;28;20030;-64
2021/11/07 04:04:23;;;;;;;1.95;1.40;;;;;;;11.53;100.00;100173.03;4990540;28;20049;-65
2021/11/07 04:06:50;;;;;;;2.47;1.45;;;;;;;11.52;100.00;100164.16;4993899;28;20129;-65
2021/11/07 04:09:17;;;;;;;1.45;1.17;;;;;;;11.52;100.00;100166.84;4986662;28;20073;-64
2021/11/07 04:11:43;;;;;;;2.78;1.02;;;;;;;11.52;100.00;100150.69;4985255;28;20089;-65
2021/11/07 04:14:10;;;;;;;1.02;0.93;;;;;;;11.54;100.00;100156.47;4994066;28;20382;-65
2021/11/07 04:16:37;;;;;;;3.42;1.02;;;;;;;11.53;100.00;100144.16;4993933;28;20034;-64
2021/11/07 04:19:03;;;;;;;1.05;0.82;;;;;;;11.55;100.00;100146.47;4986683;28;20038;-65
2021/11/07 04:21:28;;;;;;;1.27;1.10;;;;;;;11.47;100.00;100142.94;4992703;28;20042;-65
2021/11/07 04:23:54;;;;;;;1.60;1.00;;;;;;;11.44;100.00;100140.22;4978767;28;20043;-64
2021/11/07 04:26:21;;;;;;;1.27;0.80;;;;;;;11.45;100.00;100136.38;4991198;28;20070;-64
2021/11/07 04:28:48;;;;;;;1.58;1.00;;;;;;;11.48;100.00;100132.91;4972206;28;20049;-65
2021/11/07 04:31:13;;;;;;;1.42;1.00;;;;;;;11.38;100.00;100144.41;4987669;28;20073;-64
2021/11/07 04:33:39;;;;;;;1.48;0.90;;;;;;;11.39;100.00;100135.16;4976178;28;20073;-63
2021/11/07 04:36:05;;;;;;;0.70;0.70;;;;;;;11.47;100.00;100136.78;4986186;28;20137;-64
2021/11/07 04:38:31;;;;;;;0.47;0.47;;;;;;;11.37;100.00;100122.06;4986627;28;20049;-64
2021/11/07 04:40:57;;;;;;;1.00;0.85;;;;;;;11.38;100.00;100120.91;4991882;28;20041;-64
2021/11/07 04:43:22;;;;;;;0.93;0.90;;;;;;;11.43;100.00;100125.97;4976025;28;20509;-65
2021/11/07 04:45:48;;;;;;;0.85;0.60;;;;;;;11.37;100.00;100116.66;4990740;28;20038;-65
2021/11/07 04:48:14;;;;;;;1.58;0.90;;;;;;;11.35;100.00;100123.56;4992528;28;20038;-65
2021/11/07 04:50:39;;;;;;;0.60;0.60;;;;;;;11.37;100.00;100115.88;4985120;28;20038;-65
2021/11/07 04:53:11;;;;;;;0.63;0.63;;;;;;;11.36;100.00;100115.09;4987024;28;20034;-66
2021/11/07 04:55:41;;;;;;;0.93;0.80;;;;;;;11.29;100.00;100117.75;4989232;28;20544;-65
2021/11/07 04:58:08;;;;;;;1.23;0.90;;;;;;;11.33;100.00;100117.78;4992918;28;20034;-65
2021/11/07 05:00:35;;;;;;;1.13;0.70;;;;;;;11.35;100.00;100102.00;4991888;28;20505;-66
2021/11/07 05:03:02;;;;;;;3.17;0.70;;;;;;;11.37;100.00;100108.56;4988627;28;20088;-65
2021/11/07 05:05:29;;;;;;;0.80;0.80;;;;;;;11.43;100.00;100100.91;4992957;28;20034;-65
2021/11/07 05:07:56;;;;;;;0.80;0.68;;;;;;;11.41;100.00;100101.28;4992414;28;20049;-65
2021/11/07 05:10:22;;;;;;;0.80;0.50;;;;;;;11.27;100.00;100086.91;4987147;28;20042;-66
2021/11/07 05:12:50;;;;;;;0.60;0.52;;;;;;;11.31;100.00;100093.88;4993092;28;20033;-65
2021/11/07 05:15:16;;;;;;;1.70;0.57;;;;;;;11.31;100.00;100093.88;4993111;28;20397;-65
2021/11/07 05:17:42;;;;;;;1.05;0.60;;;;;;;11.36;100.00;100095.47;4990345;28;20066;-65
2021/11/07 05:20:09;;;;;;;1.90;0.60;;;;;;;11.30;100.00;100095.06;4983530;28;20113;-65
2021/11/07 05:22:35;;;;;;;1.92;0.55;;;;;;;11.27;100.00;100090.38;4992104;28;20057;-65
2021/11/07 05:25:00;;;;;;;0.38;0.30;;;;;;;11.35;100.00;100105.47;4991801;28;20022;-65
2021/11/07 05:27:26;;;;;;;0.82;0.70;;;;;;;11.39;100.00;100105.50;4988827;28;20442;-65
2021/11/07 05:29:52;;;;;;;1.50;0.73;;;;;;;11.37;100.00;100094.31;4989704;28;20035;-66
2021/11/07 05:32:17;;;;;;;1.80;1.05;;;;;;;11.43;100.00;100090.91;4991571;28;20742;-65
2021/11/07 05:34:45;;;;;;;0.80;0.77;;;;;;;11.47;100.00;100080.94;4974965;28;20070;-65
2021/11/07 05:37:11;;;;;;;5.82;0.85;;;;;;;11.40;100.00;100077.41;4988864;28;20085;-65
2021/11/07 05:39:37;;;;;;;1.80;0.82;;;;;;;11.45;100.00;100093.22;4992513;28;20440;-65
2021/11/07 05:42:03;;;;;;;0.60;0.55;;;;;;;11.43;100.00;100090.13;4991034;28;20061;-65
2021/11/07 05:44:28;;;;;;;2.45;1.00;;;;;;;11.43;100.00;100098.22;4992450;28;20026;-66
2021/11/07 05:46:54;;;;;;;1.60;1.10;;;;;;;11.51;100.00;100105.22;4985093;28;20038;-66
2021/11/07 05:49:21;;;;;;;1.98;0.98;;;;;;;11.44;100.00;100087.06;4992169;28;20060;-65
2021/11/07 05:51:46;;;;;;;1.92;1.13;;;;;;;11.41;100.00;100079.72;4989928;28;20046;-66
2021/11/07 05:54:12;;;;;;;2.40;1.00;;;;;;;11.43;100.00;100087.44;4990193;28;20041;-64
2021/11/07 05:56:38;;;;;;;3.75;1.05;;;;;;;11.45;100.00;100095.91;4983959;28;20493;-65
2021/11/07 05:59:04;;;;;;;1.13;0.82;;;;;;;11.53;100.00;100102.91;4973944;28;20027;-65
2021/11/07 06:01:30;;;;;;;1.27;1.17;;;;;;;11.47;100.00;100093.63;4983579;28;20030;-65
2021/11/07 06:03:56;;;;;;;4.32;1.40;;;;;;;11.44;100.00;100097.84;4990407;28;20070;-65
2021/11/07 06:06:21;;;;;;;1.00;0.85;;;;;;;11.44;100.00;100100.53;4992006;28;20584;-65
2021/11/07 06:08:47;;;;;;;1.15;1.00;;;;;;;11.46;100.00;100105.53;4988612;28;20104;-65
2021/11/07 06:11:13;;;;;;;1.45;0.95;;;;;;;11.46;100.00;100102.84;4988450;28;20034;-65
2021/11/07 06:13:38;;;;;;;1.67;1.10;;;;;;;11.51;100.00;100099.81;4983929;28;20073;-65
2021/11/07 06:16:04;;;;;;;2.75;1.55;;;;;;;11.57;100.00;100091.03;4973671;28;20707;-65
2021/11/07 06:18:30;;;;;;;2.70;2.00;;;;;;;11.52;100.00;100087.88;4991600;28;20409;-65
2021/11/07 06:20:59;;;;;;;5.88;1.77;;;;;;;11.39;100.00;100087.41;4985374;28;20038;-65
2021/11/07 06:23:25;;;;;;;1.30;0.82;;;;;;;11.38;100.00;100096.63;4980778;28;20514;-65
2021/11/07 06:25:51;;;;;;;2.58;0.82;;;;;;;11.38;100.00;100093.94;4990651;28;20018;-65
2021/11/07 06:28:17;;;;;;;2.85;1.17;;;;;;;11.43;100.00;100100.91;4970573;28;20042;-65
2021/11/07 06:30:44;;;;;;;0.85;0.63;;;;;;;11.35;100.00;100116.25;4988622;28;20041;-65
2021/11/07 06:33:09;;;;;;;2.60;0.82;;;;;;;11.37;100.00;100116.66;4990504;28;20422;-65
2021/11/07 06:35:34;;;;;;;0.82;0.82;;;;;;;11.36;100.00;100114.34;4988498;28;20038;-65
2021/11/07 06:38:01;;;;;;;1.75;0.77;;;;;;;11.39;100.00;100118.97;4988943;28;20030;-65
2021/11/07 06:40:27;;;;;;;5.10;1.08;;;;;;;11.43;100.00;100119.78;4989713;28;20049;-65
2021/11/07 06:42:52;;;;;;;1.75;0.55;;;;;;;11.32;100.00;100116.25;4990536;28;20034;-65
2021/11/07 06:45:18;;;;;;;0.52;0.50;;;;;;;11.38;100.00;100120.16;4970123;28;20026;-65
2021/11/07 06:47:44;;;;;;;1.60;0.50;;;;;;;11.38;100.00;100114.75;4984346;28;20037;-65
2021/11/07 06:50:13;;;;;;;2.25;1.00;;;;;;;11.37;100.00;100113.19;4989699;28;20034;-65
2021/11/07 06:52:40;;;;;;;1.02;0.95;;;;;;;11.43;100.00;100114.41;4990431;28;20053;-65
2021/11/07 06:55:07;;;;;;;2.45;1.63;;;;;;;11.47;100.00;100099.03;4990397;28;20034;-65
2021/11/07 06:57:33;;;;;;;1.92;0.93;;;;;;;11.46;100.00;100103.63;4991435;28;20046;-65
2021/11/07 06:59:59;;;;;;;5.40;0.82;;;;;;;11.42;100.00;100120.94;4970404;28;20057;-65
2021/11/07 07:02:25;;;;;;;6.55;0.60;;;;;;;11.35;100.00;100118.19;4988744;28;20493;-65
2021/11/07 07:04:51;;;;;;;2.42;0.40;;;;;;;11.34;100.00;100125.47;4989333;28;20034;-65
2021/11/07 07:07:17;;;;;;;0.52;0.50;;;;;;;11.32;100.00;100133.19;4979793;28;20034;-65
2021/11/07 07:09:49;;;;;;;3.60;0.32;;;;;;;11.30;100.00;100126.63;4979402;28;20026;-66
2021/11/07 07:35:02;;;;;;;1.17;1.08;;;;;;;11.36;100.00;100136.66;4971355;28;19936;-65
2021/11/07 07:37:27;;;;;;;3.03;0.90;;;;;;;11.45;100.00;100125.59;4977985;28;20038;-65
2021/11/07 07:39:53;;;;;;;1.58;0.30;;;;;;;11.45;100.00;100134.44;4983651;28;20571;-68
2021/11/07 07:42:19;;;;;;;1.08;0.68;;;;;;;11.54;100.00;100143.00;4989649;28;20132;-67
2021/11/07 07:44:48;;;;;;;0.98;0.77;;;;;;;11.46;100.00;100133.28;4990057;28;20034;-67
2021/11/07 07:47:14;;;;;;;0.80;0.40;;;;;;;11.41;100.00;100127.47;4987348;28;20435;-66
2021/11/07 07:49:40;;;;;;;3.78;0.90;;;;;;;11.41;100.00;100133.66;4981376;28;20034;-66
2021/11/07 07:52:06;;;;;;;3.78;1.00;;;;;;;11.54;99.79;100134.13;4987514;28;20026;-66
2021/11/07 07:54:31;;;;;;;2.88;0.70;;;;;;;11.46;100.00;100129.81;4971286;28;20039;-65
2021/11/07 07:56:57;;;;;;;0.65;0.40;;;;;;;11.48;100.00;100135.59;4970369;28;20030;-66
2021/11/07 07:59:23;;;;;;;10.60;1.05;;;;;;;11.53;100.00;100137.97;4961276;28;20019;-66
2021/11/07 08:01:49;;;;;;;2.33;0.25;;;;;;;11.56;100.00;100142.63;4972354;28;20520;-65
2021/11/07 08:04:14;;;;;;;1.00;0.45;;;;;;;11.68;98.38;100129.66;4974315;28;20516;-66
2021/11/07 08:06:40;;;;;;;2.38;0.75;;;;;;;11.66;98.57;100139.25;4974078;28;20121;-67
2021/11/07 08:09:06;;;;;;;0.70;0.38;;;;;;;11.70;98.44;100140.06;4968888;28;20027;-65
2021/11/07 08:11:32;;;;;;;3.97;1.13;;;;;;;11.68;97.41;100137.75;4971947;28;20512;-67
2021/11/07 08:13:57;;;;;;;0.65;0.50;;;;;;;11.62;96.72;100130.34;4970666;28;20105;-66
2021/11/07 08:16:26;;;;;;;0.85;0.40;;;;;;;11.63;96.32;100143.44;4975572;28;20030;-65
2021/11/07 08:18:55;;;;;;;0.68;0.60;;;;;;;11.62;96.03;100151.91;4974630;28;20062;-66
2021/11/07 08:21:21;;;;;;;0.40;0.40;;;;;;;11.64;95.22;100144.22;4971567;28;20493;-66
2021/11/07 08:23:49;;;;;;;2.92;0.65;;;;;;;11.51;94.72;100153.75;4972085;28;20043;-66
2021/11/07 08:26:16;;;;;;;1.67;0.40;;;;;;;11.54;95.19;100150.28;4976904;28;20038;-66
2021/11/07 08:28:43;;;;;;;1.45;0.30;;;;;;;11.64;94.85;100133.44;4973637;28;20035;-66
2021/11/07 08:31:17;;;;;;;0.80;0.28;;;;;;;11.79;94.10;100152.06;4970159;28;20077;-66
2021/11/07 08:33:43;;;;;;;1.75;0.55;;;;;;;12.04;93.77;100148.78;4957455;28;20117;-66
2021/11/07 08:36:13;;;;;;;3.92;0.50;;;;;;;12.09;92.68;100143.78;4975075;28;20022;-66
2021/11/07 08:38:46;;;;;;;1.05;0.40;;;;;;;12.01;91.99;100150.28;4977651;28;20035;-67
2021/11/07 08:41:14;;;;;;;1.52;0.73;;;;;;;12.01;92.51;100144.13;4980841;28;20042;-66
2021/11/07 09:00:29;;;;;;;2.88;0.57;;;;;;;12.29;89.96;100155.09;4917436;29;20122;-66
2021/11/07 09:05:35;;;;;;;3.78;0.60;;;;;;;12.16;90.70;100143.03;4923666;29;20080;-67
2021/11/07 09:10:34;;;;;;;1.73;0.75;;;;;;;12.37;91.12;100154.72;4921420;29;20399;-67
2021/11/07 09:13:03;;;;;;;1.38;0.32;;;;;;;12.40;91.50;100151.28;4914912;29;20067;-68
2021/11/07 09:15:31;;;;;;;7.35;0.90;;;;;;;12.52;92.03;100160.97;4916548;29;20052;-67
2021/11/07 09:17:57;;;;;;;4.05;0.95;;;;;;;12.73;90.56;100160.28;4963918;23;20046;-66
2021/11/07 09:20:45;;;;;;;2.22;0.45;;;;;;;12.76;91.58;100149.47;4966427;28;20042;-66
2021/11/07 09:28:13;;;;;;;2.80;0.80;;;;;;;12.70;91.47;100164.50;4986949;28;20052;-67
2021/11/07 09:30:57;;;;;;;;;;;;;;;12.58;91.49;100167.56;4988168;28;20038;-66
2021/11/07 09:36:22;;;;;;;6.30;0.60;;;;;;;12.62;91.18;100152.91;4975326;28;20389;-66
2021/11/07 09:38:51;;;;;;;1.65;0.50;;;;;;;12.63;90.69;100159.09;4987281;28;20552;-67
2021/11/07 09:41:52;;;;;;;4.68;0.70;;;;;;;12.53;91.66;100171.41;4986648;28;20046;-66
2021/11/07 09:44:21;;;;;;;2.35;0.55;;;;;;;12.64;92.04;100172.22;4987411;28;20034;-67
2021/11/07 09:46:52;;;;;;;0.52;0.30;;;;;;;12.68;91.79;100167.59;4988484;28;20088;-66
2021/11/07 09:49:23;;;;;;;2.35;0.75;;;;;;;12.53;93.38;100181.41;4987731;28;20428;-66
2021/11/07 09:52:12;;;;;;;5.05;0.65;;;;;;;12.49;94.12;100184.13;4987271;28;20061;-66
2021/11/07 09:54:43;;;;;;;1.20;0.38;;;;;;;12.67;93.69;100179.56;4988937;28;20038;-67
2021/11/07 09:57:11;;;;;;;;;;;;;;;12.66;92.81;100169.91;4989387;28;20389;-66
2021/11/07 09:59:37;;;;;;;6.28;0.60;;;;;;;12.76;91.90;100175.72;4989329;28;20035;-65
2021/11/07 10:02:03;;;;;;;7.28;0.65;;;;;;;12.68;91.57;100177.63;4988983;28;20476;-66
2021/11/07 10:04:37;;;;;;;1.25;0.47;;;;;;;12.68;91.30;100162.19;4969363;28;20041;-66
2021/11/07 10:07:17;;;;;;;9.63;0.70;;;;;;;12.61;90.94;100167.56;4977880;28;20519;-67
2021/11/07 10:09:43;;;;;;;4.00;0.40;;;;;;;12.61;91.26;100167.56;4971474;28;20070;-67
2021/11/07 10:12:30;;;;;;;0.73;0.70;;;;;;;12.73;90.98;100162.97;4973781;28;20126;-66
2021/11/07 10:14:58;;;;;;;1.77;0.57;;;;;;;12.83;89.04;100160.31;4970814;28;20125;-66
2021/11/07 10:17:48;;;;;;;0.70;0.52;;;;;;;12.85;87.32;100168.03;4931527;28;1079767;-66
2021/11/07 10:20:38;;;;;;;3.38;0.40;;;;;;;12.77;85.84;100163.78;4981404;28;20301;-67
2021/11/07 10:23:28;;;;;;;3.08;0.47;;;;;;;12.80;85.42;100168.41;4988262;28;20034;-66
2021/11/07 10:28:39;;;;;;;3.90;0.50;;;;;;;12.86;86.54;100156.06;4986869;28;20380;-66
2021/11/07 10:31:27;;;;;;;1.13;0.50;;;;;;;12.92;85.98;100157.25;4968765;28;20450;-67
2021/11/07 10:52:42;;;;;;;1.45;0.70;;;;;;;12.44;91.15;100176.38;4976697;28;20117;-68
2021/11/07 10:55:22;;;;;;;3.92;0.47;;;;;;;12.36;91.34;100180.19;4981321;28;20531;-67
2021/11/07 10:57:51;;;;;;;0.60;0.22;;;;;;;12.50;91.63;100176.78;4983716;28;20678;-66
2021/11/07 11:00:22;;;;;;;1.48;0.63;;;;;;;12.59;92.55;100159.09;4955625;28;20022;-66
2021/11/07 11:02:55;;;;;;;1.25;0.30;;;;;;;12.66;95.31;100178.00;4980199;28;20045;-66
2021/11/07 11:05:24;;;;;;;2.28;0.28;;;;;;;12.77;94.93;100152.97;4976742;28;20041;-65
2021/11/07 11:07:59;;;;;;;2.42;0.95;;;;;;;12.80;94.75;100168.41;4969151;28;20042;-69
2021/11/07 11:10:44;;;;;;;7.32;0.50;;;;;;;13.03;92.88;100171.56;4987944;28;20057;-66
2021/11/07 11:13:26;;;;;;;5.63;0.90;;;;;;;13.09;91.83;100164.66;4980787;28;20088;-67
2021/11/07 11:18:56;;;;;;;1.02;0.40;;;;;;;13.19;90.64;100158.50;4967903;28;20606;-66
2021/11/07 11:21:45;;;;;;;2.05;1.10;;;;;;;13.03;89.69;100166.16;4985993;28;20056;-66
2021/11/07 11:27:25;;;;;;;1.17;0.55;;;;;;;12.82;89.95;100157.97;4983157;28;20521;-66
2021/11/07 11:32:47;;;;;;;2.58;0.60;;;;;;;12.85;88.38;100143.72;4980014;28;20135;-65
2021/11/07 11:40:19;;;;;;;3.50;0.47;;;;;;;13.00;86.77;100145.31;4984923;28;20034;-66
2021/11/07 11:45:22;;;;;;;3.97;0.60;;;;;;;13.27;84.64;100160.06;4981274;28;20031;-66
2021/11/07 11:48:19;;;;;;;0.32;0.13;;;;;;;13.24;83.25;100158.88;4988037;28;20045;-66
2021/11/07 12:01:25;;;;;;;7.57;0.52;;;;;;;12.49;88.40;100196.84;4988420;28;20585;-66
2021/11/07 12:06:22;;;;;;;4.22;0.77;;;;;;;11.88;93.79;100197.63;4988152;28;20121;-67
2021/11/07 12:09:02;;;;;;;0.55;0.28;;;;;;;11.76;94.77;100179.03;4988491;28;20046;-66
2021/11/07 12:14:15;;;;;;;0.70;0.52;;;;;;;11.92;94.77;100157.97;4991445;28;20293;-66
2021/11/07 12:17:04;;;;;;;4.20;0.20;;;;;;;11.96;96.26;100158.75;4961836;28;20050;-66
2021/11/07 12:19:41;;;;;;;2.03;0.50;;;;;;;12.00;97.30;100158.78;4966068;28;20053;-65
2021/11/07 12:22:13;;;;;;;0.57;0.32;;;;;;;12.14;95.74;100158.84;4971863;28;20030;-66
2021/11/07 12:24:51;;;;;;;3.95;0.40;;;;;;;12.11;96.34;100165.78;4990538;28;20120;-66
2021/11/07 12:27:29;;;;;;;0.28;0.22;;;;;;;12.11;96.65;100159.59;4987166;28;20390;-66
2021/11/07 12:29:59;;;;;;;0.40;0.30;;;;;;;12.20;95.51;100163.50;4988222;28;20045;-65
2021/11/07 12:32:38;;;;;;;1.23;0.50;;;;;;;12.19;95.11;100150.41;4987334;28;20030;-66
2021/11/07 12:35:15;;;;;;;1.75;0.70;;;;;;;12.18;95.84;100152.31;4989836;28;20401;-66
2021/11/07 12:41:02;;;;;;;2.75;0.30;;;;;;;12.28;94.04;100142.72;4987162;28;20034;-66
2021/11/07 12:43:32;;;;;;;0.90;0.57;;;;;;;12.28;94.82;100145.41;4988747;28;20038;-67
2021/11/07 12:46:18;;;;;;;3.30;0.80;;;;;;;12.28;93.29;100143.50;4990663;28;20038;-65
2021/11/07 12:48:53;;;;;;;1.95;0.75;;;;;;;12.26;94.47;100139.63;4988133;28;20042;-65
2021/11/07 12:51:42;;;;;;;3.53;0.40;;;;;;;12.34;93.80;100142.00;4987939;28;20042;-66
2021/11/07 12:54:09;;;;;;;1.45;0.50;;;;;;;12.34;91.12;100135.81;4954184;28;20563;-66
2021/11/07 12:56:43;;;;;;;1.15;0.70;;;;;;;12.35;91.59;100140.06;4989789;28;20034;-65
2021/11/07 12:59:12;;;;;;;1.42;0.40;;;;;;;12.35;90.46;100151.63;4989124;28;20038;-65
2021/11/07 13:02:23;;;;;;;5.22;0.85;;;;;;;12.19;91.46;100147.69;4989748;28;20027;-66
2021/11/07 13:04:55;;;;;;;2.33;0.55;;;;;;;12.20;92.01;100135.72;4970711;28;20027;-65
2021/11/07 13:07:49;;;;;;;3.47;0.85;;;;;;;12.22;91.35;100145.00;4987915;28;20053;-66
2021/11/07 13:10:24;;;;;;;6.18;0.85;;;;;;;12.33;90.90;100129.63;4982679;28;20050;-67
2021/11/07 13:12:53;;;;;;;1.77;0.40;;;;;;;12.29;90.98;100144.28;4982221;28;20035;-66
2021/11/07 13:25:48;;;;;;;1.33;0.45;;;;;;;12.01;98.33;100154.91;4989463;28;20038;-67
2021/11/07 13:31:18;;;;;;;0.65;0.28;;;;;;;11.91;99.22;100169.09;4987002;28;20066;-69
2021/11/07 13:33:45;;;;;;;4.85;0.73;;;;;;;12.06;99.89;100163.41;4972171;28;20180;-66
2021/11/07 13:36:17;;;;;;;2.83;0.70;;;;;;;12.12;100.00;100159.22;4992456;28;20519;-65
2021/11/07 13:38:48;;;;;;;5.10;0.77;;;;;;;12.31;98.47;100163.59;4972297;28;20107;-65
2021/11/07 13:41:21;;;;;;;1.17;0.55;;;;;;;12.19;97.81;100161.19;4969609;28;20049;-66
2021/11/07 13:43:56;;;;;;;4.70;0.60;;;;;;;12.14;97.60;100169.63;4990184;28;20081;-65
2021/11/07 13:46:22;;;;;;;3.50;0.70;;;;;;;12.02;97.92;100165.31;4988137;28;20100;-67
2021/11/07 13:49:02;;;;;;;1.23;0.30;;;;;;;11.97;98.04;100173.78;4988971;28;20492;-65
2021/11/07 13:51:33;;;;;;;1.98;0.25;;;;;;;11.90;98.46;100181.84;4983114;28;20045;-66
2021/11/07 13:54:04;;;;;;;3.13;0.70;;;;;;;11.83;98.41;100168.28;4987755;28;20405;-65
2021/11/07 13:56:30;;;;;;;;;;;;;;;11.63;99.66;100175.81;4982584;28;20496;-64
2021/11/07 13:58:57;;;;;;;0.10;0.10;;;;;;;11.55;100.00;100189.63;4971321;28;19920;-65
2021/11/07 14:01:22;;;;;;;1.45;0.43;;;;;;;11.56;100.00;100178.44;4981581;28;20038;-67
2021/11/07 14:03:56;;;;;;;4.05;0.60;;;;;;;11.53;100.00;100178.44;4984130;28;20909;-65